Fort Saint John, British Columbia

12:19 AM PDT on October 24, 2014 (GMT -0700)
Vila Parente - Parklane | Change Station
CLOSE
Current Station
Personal Weather Station
Location: Fort St. John, BRITISH COLUMBIA
Elevation: 2221 ft
Nearby Weather Stations

Elev 2221 ft 56.23 °N, 120.81 °W | Updated 9 minutes ago

Mist
Mist
27.4 °F
Feels Like 27 °F
N
0.0
Wind Variable Wind from WNW
Gusts 0.0 mph

Today
High -- | Low -- °F
--% Chance of Precip.
Yesterday
High -- | Low -- °F
Precip. -- in
7:53 AM 5:39 PM
New Moon, 0% visible
Pressure 29.78 in
Visibility 0.8 miles
Clouds
Windchill 27 °F
Dew Point 26 °F
Humidity 96%
Rainfall 0.00 in
Snow Depth Not available.
UV Not available.
Pollen Not available.
Air Quality Not available.
Flu Activity Not available.
SPECI CYDQ 240715Z AUTO 17003KT 3/4SM BR VV003 M01/M01 A2968 RMK SLP083

More Conditions Fewer Conditions

Pressure 29.78 in
Visibility 0.8 miles
Clouds
Windchill 27 °F
Dew Point 26 °F
Humidity 96%
Rainfall 0.00 in
Snow Depth Not available.
UV Not available.
Pollen Not available.
Air Quality Not available.
Flu Activity Not available.
SPECI CYDQ 240715Z AUTO 17003KT 3/4SM BR VV003 M01/M01 A2968 RMK SLP083

More Conditions Fewer Conditions

10-Day Weather Forecast

Almanac

Astronomy

Oct. 24, 2014 Rise Set
Actual Time 7:53 AM PDT 5:39 PM PDT
Civil Twilight 7:15 AM PDT 6:18 PM PDT
Nautical Twilight 6:31 AM PDT 7:01 PM PDT
Astronomical Twilight 5:48 AM PDT 7:44 PM PDT
Moon 8:45 AM PDT 6:12 PM PDT
Length of Visible Light 11h 03m
Length of Day
9h 45m
Tomorrow will be 4m 29s shorter.
New Moon, 0% of the Moon is Illuminated
Today
New Moon
Oct 30
First Quarter
Nov 6
Full
Nov 14
Last Quarter
Nov 22
New

Yesterday's Extremes

Country Highs Country Lows

Community

WunderPhotos

Upload Photos

1,764,510 photos uploaded!

WunderBlogs® & News

Nearby

Snow Depth

Not available.

Earthquake Activity

City Distance Mag. Time & Date
No recent earthquake activity has been reported nearby.
Minimum magnitude displayed is 2.5.

Coastal Water Temperatures

Place Temperature
No Stations Reporting

Nearby Weather Stations